sensor_id;sensor_type;location;lat;lon;timestamp;temperature;humidity
20831;DHT22;10576;53.556;9.868;2023-10-13T00:00:38;12.90;99.90
20831;DHT22;10576;53.556;9.868;2023-10-13T00:03:06;12.90;99.90
20831;DHT22;10576;53.556;9.868;2023-10-13T00:05:32;12.90;99.90
20831;DHT22;10576;53.556;9.868;2023-10-13T00:08:02;12.90;99.90
20831;DHT22;10576;53.556;9.868;2023-10-13T00:10:28;12.90;99.90
20831;DHT22;10576;53.556;9.868;2023-10-13T00:12:54;12.90;99.90
20831;DHT22;10576;53.556;9.868;2023-10-13T00:15:31;12.90;99.90
20831;DHT22;10576;53.556;9.868;2023-10-13T00:18:04;12.90;99.90
20831;DHT22;10576;53.556;9.868;2023-10-13T00:20:38;12.90;99.90
20831;DHT22;10576;53.556;9.868;2023-10-13T00:23:04;13.00;99.90
20831;DHT22;10576;53.556;9.868;2023-10-13T00:25:31;13.00;99.90
20831;DHT22;10576;53.556;9.868;2023-10-13T00:28:09;13.00;99.90
20831;DHT22;10576;53.556;9.868;2023-10-13T00:30:34;13.00;99.90
20831;DHT22;10576;53.556;9.868;2023-10-13T00:33:00;13.00;99.90
20831;DHT22;10576;53.556;9.868;2023-10-13T00:35:26;13.00;99.90
20831;DHT22;10576;53.556;9.868;2023-10-13T00:38:01;13.00;99.90
20831;DHT22;10576;53.556;9.868;2023-10-13T00:40:40;13.00;99.90
20831;DHT22;10576;53.556;9.868;2023-10-13T00:43:09;13.00;99.90
20831;DHT22;10576;53.556;9.868;2023-10-13T00:45:45;13.00;99.90
20831;DHT22;10576;53.556;9.868;2023-10-13T00:48:21;13.10;99.90
20831;DHT22;10576;53.556;9.868;2023-10-13T00:50:49;13.10;99.90
20831;DHT22;10576;53.556;9.868;2023-10-13T00:53:15;13.10;99.90
20831;DHT22;10576;53.556;9.868;2023-10-13T00:55:41;13.10;99.90
20831;DHT22;10576;53.556;9.868;2023-10-13T00:58:07;13.20;99.90
20831;DHT22;10576;53.556;9.868;2023-10-13T01:00:37;13.20;99.90
20831;DHT22;10576;53.556;9.868;2023-10-13T01:03:12;13.20;99.90
20831;DHT22;10576;53.556;9.868;2023-10-13T01:05:38;13.20;99.90
20831;DHT22;10576;53.556;9.868;2023-10-13T01:08:04;13.20;99.90
20831;DHT22;10576;53.556;9.868;2023-10-13T01:10:30;13.20;99.90
20831;DHT22;10576;53.556;9.868;2023-10-13T01:12:57;11.80;99.90
20831;DHT22;10576;53.556;9.868;2023-10-13T01:15:24;13.20;99.90
20831;DHT22;10576;53.556;9.868;2023-10-13T01:18:05;13.30;99.90
20831;DHT22;10576;53.556;9.868;2023-10-13T01:20:37;13.30;99.90
20831;DHT22;10576;53.556;9.868;2023-10-13T01:23:10;13.30;99.90
20831;DHT22;10576;53.556;9.868;2023-10-13T01:25:43;13.30;99.90
20831;DHT22;10576;53.556;9.868;2023-10-13T01:28:09;13.30;99.90
20831;DHT22;10576;53.556;9.868;2023-10-13T01:30:35;13.30;99.90
20831;DHT22;10576;53.556;9.868;2023-10-13T01:33:03;13.40;99.90
20831;DHT22;10576;53.556;9.868;2023-10-13T01:35:29;13.40;99.90
20831;DHT22;10576;53.556;9.868;2023-10-13T01:38:02;13.40;99.90
20831;DHT22;10576;53.556;9.868;2023-10-13T01:40:27;13.40;99.90
20831;DHT22;10576;53.556;9.868;2023-10-13T01:42:57;13.40;99.90
20831;DHT22;10576;53.556;9.868;2023-10-13T01:45:23;13.50;99.90
20831;DHT22;10576;53.556;9.868;2023-10-13T01:47:54;13.50;99.90
20831;DHT22;10576;53.556;9.868;2023-10-13T01:50:20;13.50;99.90
20831;DHT22;10576;53.556;9.868;2023-10-13T01:52:53;13.50;99.90
20831;DHT22;10576;53.556;9.868;2023-10-13T01:55:25;13.50;99.90
20831;DHT22;10576;53.556;9.868;2023-10-13T01:57:51;13.50;99.90
20831;DHT22;10576;53.556;9.868;2023-10-13T02:00:17;13.60;99.90
20831;DHT22;10576;53.556;9.868;2023-10-13T02:02:45;13.60;99.90
20831;DHT22;10576;53.556;9.868;2023-10-13T02:05:15;13.60;99.90
20831;DHT22;10576;53.556;9.868;2023-10-13T02:07:42;13.60;99.90
20831;DHT22;10576;53.556;9.868;2023-10-13T02:10:13;13.60;99.90
20831;DHT22;10576;53.556;9.868;2023-10-13T02:12:41;13.60;99.90
20831;DHT22;10576;53.556;9.868;2023-10-13T02:15:10;13.60;99.90
20831;DHT22;10576;53.556;9.868;2023-10-13T02:17:45;13.70;99.90
20831;DHT22;10576;53.556;9.868;2023-10-13T02:20:17;13.60;99.90
20831;DHT22;10576;53.556;9.868;2023-10-13T02:22:42;13.60;99.90
20831;DHT22;10576;53.556;9.868;2023-10-13T02:25:17;13.70;99.90
20831;DHT22;10576;53.556;9.868;2023-10-13T02:28:03;13.70;99.90
20831;DHT22;10576;53.556;9.868;2023-10-13T02:30:42;13.70;99.90
20831;DHT22;10576;53.556;9.868;2023-10-13T02:33:13;13.70;99.90
20831;DHT22;10576;53.556;9.868;2023-10-13T02:35:39;13.70;99.90
20831;DHT22;10576;53.556;9.868;2023-10-13T02:38:09;13.70;99.90
20831;DHT22;10576;53.556;9.868;2023-10-13T02:40:38;13.70;99.90
20831;DHT22;10576;53.556;9.868;2023-10-13T02:43:04;13.80;99.90
20831;DHT22;10576;53.556;9.868;2023-10-13T02:45:32;13.80;99.90
20831;DHT22;10576;53.556;9.868;2023-10-13T02:48:01;13.80;99.90
20831;DHT22;10576;53.556;9.868;2023-10-13T02:50:39;13.80;99.90
20831;DHT22;10576;53.556;9.868;2023-10-13T02:53:08;13.80;99.90
20831;DHT22;10576;53.556;9.868;2023-10-13T02:55:58;13.80;99.90
20831;DHT22;10576;53.556;9.868;2023-10-13T02:58:31;13.80;99.90
20831;DHT22;10576;53.556;9.868;2023-10-13T03:01:06;13.80;99.90
20831;DHT22;10576;53.556;9.868;2023-10-13T03:03:45;13.90;99.90
20831;DHT22;10576;53.556;9.868;2023-10-13T03:06:13;13.90;99.90
20831;DHT22;10576;53.556;9.868;2023-10-13T03:08:39;13.90;99.90
20831;DHT22;10576;53.556;9.868;2023-10-13T03:11:05;13.90;99.90
20831;DHT22;10576;53.556;9.868;2023-10-13T03:13:31;14.00;99.90
20831;DHT22;10576;53.556;9.868;2023-10-13T03:15:59;14.00;99.90
20831;DHT22;10576;53.556;9.868;2023-10-13T03:18:24;14.00;99.90
20831;DHT22;10576;53.556;9.868;2023-10-13T03:20:50;14.00;99.90
20831;DHT22;10576;53.556;9.868;2023-10-13T03:23:22;14.00;99.90
20831;DHT22;10576;53.556;9.868;2023-10-13T03:25:49;14.10;99.90
20831;DHT22;10576;53.556;9.868;2023-10-13T03:28:15;14.10;99.90
20831;DHT22;10576;53.556;9.868;2023-10-13T03:30:43;14.20;99.90
20831;DHT22;10576;53.556;9.868;2023-10-13T03:33:09;14.20;99.90
20831;DHT22;10576;53.556;9.868;2023-10-13T03:35:37;14.10;99.90
20831;DHT22;10576;53.556;9.868;2023-10-13T03:38:03;14.20;99.90
20831;DHT22;10576;53.556;9.868;2023-10-13T03:40:29;14.20;99.90
20831;DHT22;10576;53.556;9.868;2023-10-13T03:42:55;14.30;99.90
20831;DHT22;10576;53.556;9.868;2023-10-13T03:45:37;14.30;99.90
20831;DHT22;10576;53.556;9.868;2023-10-13T03:48:10;14.30;99.90
20831;DHT22;10576;53.556;9.868;2023-10-13T03:50:40;14.40;99.90
20831;DHT22;10576;53.556;9.868;2023-10-13T03:53:26;14.40;99.90
20831;DHT22;10576;53.556;9.868;2023-10-13T03:55:51;14.40;99.90
20831;DHT22;10576;53.556;9.868;2023-10-13T03:58:36;14.40;99.90
20831;DHT22;10576;53.556;9.868;2023-10-13T04:01:03;14.40;99.90
20831;DHT22;10576;53.556;9.868;2023-10-13T04:03:29;14.50;99.90
20831;DHT22;10576;53.556;9.868;2023-10-13T04:06:06;14.50;99.90
20831;DHT22;10576;53.556;9.868;2023-10-13T04:08:33;14.50;99.90
20831;DHT22;10576;53.556;9.868;2023-10-13T04:11:07;14.60;99.90
20831;DHT22;10576;53.556;9.868;2023-10-13T04:13:51;14.60;99.90
20831;DHT22;10576;53.556;9.868;2023-10-13T04:16:35;14.60;99.90
20831;DHT22;10576;53.556;9.868;2023-10-13T04:19:02;14.60;99.90
20831;DHT22;10576;53.556;9.868;2023-10-13T04:21:28;14.70;99.90
20831;DHT22;10576;53.556;9.868;2023-10-13T04:24:11;14.80;99.90
20831;DHT22;10576;53.556;9.868;2023-10-13T04:26:43;14.80;99.90
20831;DHT22;10576;53.556;9.868;2023-10-13T04:29:27;14.80;99.90
20831;DHT22;10576;53.556;9.868;2023-10-13T04:32:14;14.90;99.90
20831;DHT22;10576;53.556;9.868;2023-10-13T04:34:41;14.90;99.90
20831;DHT22;10576;53.556;9.868;2023-10-13T04:37:13;15.00;99.90
20831;DHT22;10576;53.556;9.868;2023-10-13T04:39:54;15.10;99.90
20831;DHT22;10576;53.556;9.868;2023-10-13T04:42:25;15.10;99.90
20831;DHT22;10576;53.556;9.868;2023-10-13T04:45:09;15.10;99.90
20831;DHT22;10576;53.556;9.868;2023-10-13T04:48:01;15.20;99.90
20831;DHT22;10576;53.556;9.868;2023-10-13T04:50:39;15.20;99.90
20831;DHT22;10576;53.556;9.868;2023-10-13T04:53:17;15.20;99.90
20831;DHT22;10576;53.556;9.868;2023-10-13T04:55:59;15.20;99.90
20831;DHT22;10576;53.556;9.868;2023-10-13T04:58:33;15.30;99.90
20831;DHT22;10576;53.556;9.868;2023-10-13T05:01:02;15.30;99.90
20831;DHT22;10576;53.556;9.868;2023-10-13T05:03:46;15.30;99.90
20831;DHT22;10576;53.556;9.868;2023-10-13T05:06:31;15.40;99.90
20831;DHT22;10576;53.556;9.868;2023-10-13T05:09:09;15.40;99.90
20831;DHT22;10576;53.556;9.868;2023-10-13T05:11:53;15.40;99.90
20831;DHT22;10576;53.556;9.868;2023-10-13T05:14:38;15.40;99.90
20831;DHT22;10576;53.556;9.868;2023-10-13T05:17:21;15.50;99.90
20831;DHT22;10576;53.556;9.868;2023-10-13T05:20:06;15.60;99.90
20831;DHT22;10576;53.556;9.868;2023-10-13T05:22:50;15.60;99.90
20831;DHT22;10576;53.556;9.868;2023-10-13T05:25:35;15.60;99.90
20831;DHT22;10576;53.556;9.868;2023-10-13T05:28:19;15.60;99.90
20831;DHT22;10576;53.556;9.868;2023-10-13T05:31:03;15.70;99.90
20831;DHT22;10576;53.556;9.868;2023-10-13T05:33:48;15.70;99.90
20831;DHT22;10576;53.556;9.868;2023-10-13T05:36:32;15.70;99.90
20831;DHT22;10576;53.556;9.868;2023-10-13T05:39:16;15.70;99.90
20831;DHT22;10576;53.556;9.868;2023-10-13T05:42:01;15.80;99.90
20831;DHT22;10576;53.556;9.868;2023-10-13T05:44:45;15.80;99.90
20831;DHT22;10576;53.556;9.868;2023-10-13T05:47:29;15.80;99.90
20831;DHT22;10576;53.556;9.868;2023-10-13T05:50:08;15.80;99.90
20831;DHT22;10576;53.556;9.868;2023-10-13T05:52:46;15.80;99.90
20831;DHT22;10576;53.556;9.868;2023-10-13T05:55:27;15.80;99.90
20831;DHT22;10576;53.556;9.868;2023-10-13T05:58:11;15.80;99.90
20831;DHT22;10576;53.556;9.868;2023-10-13T06:00:56;15.90;99.90
20831;DHT22;10576;53.556;9.868;2023-10-13T06:03:40;15.90;99.90
20831;DHT22;10576;53.556;9.868;2023-10-13T06:06:24;16.00;99.90
20831;DHT22;10576;53.556;9.868;2023-10-13T06:09:08;15.90;99.90
20831;DHT22;10576;53.556;9.868;2023-10-13T06:11:53;16.00;99.90
20831;DHT22;10576;53.556;9.868;2023-10-13T06:14:37;16.00;99.90
20831;DHT22;10576;53.556;9.868;2023-10-13T06:17:22;16.00;99.90
20831;DHT22;10576;53.556;9.868;2023-10-13T06:20:06;16.00;99.90
20831;DHT22;10576;53.556;9.868;2023-10-13T06:22:50;16.00;99.90
20831;DHT22;10576;53.556;9.868;2023-10-13T06:25:35;16.00;99.90
20831;DHT22;10576;53.556;9.868;2023-10-13T06:28:19;16.00;99.90
20831;DHT22;10576;53.556;9.868;2023-10-13T06:31:04;16.10;99.90
20831;DHT22;10576;53.556;9.868;2023-10-13T06:33:35;16.10;99.90
20831;DHT22;10576;53.556;9.868;2023-10-13T06:36:01;16.10;99.90
20831;DHT22;10576;53.556;9.868;2023-10-13T06:38:27;16.10;99.90
20831;DHT22;10576;53.556;9.868;2023-10-13T06:41:04;16.10;99.90
20831;DHT22;10576;53.556;9.868;2023-10-13T06:43:34;16.10;99.90
20831;DHT22;10576;53.556;9.868;2023-10-13T06:46:07;16.20;99.90
20831;DHT22;10576;53.556;9.868;2023-10-13T06:48:39;16.20;99.90
20831;DHT22;10576;53.556;9.868;2023-10-13T06:51:05;16.20;99.90
20831;DHT22;10576;53.556;9.868;2023-10-13T06:53:43;16.20;99.90
20831;DHT22;10576;53.556;9.868;2023-10-13T06:56:13;16.20;99.90
20831;DHT22;10576;53.556;9.868;2023-10-13T06:58:43;16.20;99.90
20831;DHT22;10576;53.556;9.868;2023-10-13T07:01:09;16.20;99.90
20831;DHT22;10576;53.556;9.868;2023-10-13T07:03:43;16.30;99.90
20831;DHT22;10576;53.556;9.868;2023-10-13T07:06:09;16.30;99.90
20831;DHT22;10576;53.556;9.868;2023-10-13T07:08:43;16.30;99.90
20831;DHT22;10576;53.556;9.868;2023-10-13T07:11:26;16.30;99.90
20831;DHT22;10576;53.556;9.868;2023-10-13T07:14:07;16.30;99.90
20831;DHT22;10576;53.556;9.868;2023-10-13T07:16:43;16.30;99.90
20831;DHT22;10576;53.556;9.868;2023-10-13T07:19:12;16.40;99.90
20831;DHT22;10576;53.556;9.868;2023-10-13T07:21:43;16.30;99.90
20831;DHT22;10576;53.556;9.868;2023-10-13T07:24:13;16.40;99.90
20831;DHT22;10576;53.556;9.868;2023-10-13T07:26:39;16.40;99.90
20831;DHT22;10576;53.556;9.868;2023-10-13T07:29:23;16.40;99.90
20831;DHT22;10576;53.556;9.868;2023-10-13T07:31:50;16.50;99.90
20831;DHT22;10576;53.556;9.868;2023-10-13T07:34:15;16.40;99.90
20831;DHT22;10576;53.556;9.868;2023-10-13T07:36:54;16.40;99.90
20831;DHT22;10576;53.556;9.868;2023-10-13T07:39:33;16.50;99.90
20831;DHT22;10576;53.556;9.868;2023-10-13T07:42:04;16.50;99.90
20831;DHT22;10576;53.556;9.868;2023-10-13T07:44:31;16.40;99.90
20831;DHT22;10576;53.556;9.868;2023-10-13T07:47:02;16.40;99.90
20831;DHT22;10576;53.556;9.868;2023-10-13T07:49:29;16.50;99.90
20831;DHT22;10576;53.556;9.868;2023-10-13T07:52:00;16.50;99.90
20831;DHT22;10576;53.556;9.868;2023-10-13T07:54:44;16.50;99.90
20831;DHT22;10576;53.556;9.868;2023-10-13T07:57:12;16.50;99.90
20831;DHT22;10576;53.556;9.868;2023-10-13T07:59:40;16.50;99.90
20831;DHT22;10576;53.556;9.868;2023-10-13T08:02:13;16.50;99.90
20831;DHT22;10576;53.556;9.868;2023-10-13T08:04:40;16.50;99.90
20831;DHT22;10576;53.556;9.868;2023-10-13T08:07:06;16.50;99.90
20831;DHT22;10576;53.556;9.868;2023-10-13T08:09:39;16.50;99.90
20831;DHT22;10576;53.556;9.868;2023-10-13T08:12:08;16.50;99.90
20831;DHT22;10576;53.556;9.868;2023-10-13T08:14:37;16.50;99.90
20831;DHT22;10576;53.556;9.868;2023-10-13T08:17:08;16.50;99.90
20831;DHT22;10576;53.556;9.868;2023-10-13T08:19:38;16.50;99.90
20831;DHT22;10576;53.556;9.868;2023-10-13T08:22:15;16.50;99.90
20831;DHT22;10576;53.556;9.868;2023-10-13T08:24:46;16.60;99.90
20831;DHT22;10576;53.556;9.868;2023-10-13T08:27:13;16.60;99.90
20831;DHT22;10576;53.556;9.868;2023-10-13T08:29:57;16.60;99.90
20831;DHT22;10576;53.556;9.868;2023-10-13T08:32:23;16.60;99.90
20831;DHT22;10576;53.556;9.868;2023-10-13T08:34:52;16.60;99.90
20831;DHT22;10576;53.556;9.868;2023-10-13T08:37:18;16.50;99.90
20831;DHT22;10576;53.556;9.868;2023-10-13T08:39:47;16.50;99.90
20831;DHT22;10576;53.556;9.868;2023-10-13T08:42:31;16.50;99.90
20831;DHT22;10576;53.556;9.868;2023-10-13T08:45:19;16.60;99.90
20831;DHT22;10576;53.556;9.868;2023-10-13T08:47:52;16.60;99.90
20831;DHT22;10576;53.556;9.868;2023-10-13T08:50:41;16.50;99.90
20831;DHT22;10576;53.556;9.868;2023-10-13T08:53:26;16.60;99.90
20831;DHT22;10576;53.556;9.868;2023-10-13T08:56:02;16.50;99.90
20831;DHT22;10576;53.556;9.868;2023-10-13T08:58:46;16.60;99.90
20831;DHT22;10576;53.556;9.868;2023-10-13T09:01:23;16.60;99.90
20831;DHT22;10576;53.556;9.868;2023-10-13T09:04:08;16.60;99.90
20831;DHT22;10576;53.556;9.868;2023-10-13T09:09:34;16.70;99.90
20831;DHT22;10576;53.556;9.868;2023-10-13T09:12:01;16.70;99.90
20831;DHT22;10576;53.556;9.868;2023-10-13T09:14:36;16.70;99.90
20831;DHT22;10576;53.556;9.868;2023-10-13T09:17:10;16.80;99.90
20831;DHT22;10576;53.556;9.868;2023-10-13T09:19:45;16.90;99.90
20831;DHT22;10576;53.556;9.868;2023-10-13T09:22:25;17.00;99.90
20831;DHT22;10576;53.556;9.868;2023-10-13T09:25:01;17.00;99.90
20831;DHT22;10576;53.556;9.868;2023-10-13T09:27:29;17.10;99.90
20831;DHT22;10576;53.556;9.868;2023-10-13T09:29:58;17.10;99.90
20831;DHT22;10576;53.556;9.868;2023-10-13T09:32:32;17.20;99.90
20831;DHT22;10576;53.556;9.868;2023-10-13T09:35:01;17.20;99.90
20831;DHT22;10576;53.556;9.868;2023-10-13T09:37:26;17.20;99.90
20831;DHT22;10576;53.556;9.868;2023-10-13T09:39:53;17.20;99.90
20831;DHT22;10576;53.556;9.868;2023-10-13T09:42:20;17.20;99.90
20831;DHT22;10576;53.556;9.868;2023-10-13T09:44:48;17.20;99.90
20831;DHT22;10576;53.556;9.868;2023-10-13T09:47:22;17.20;99.90
20831;DHT22;10576;53.556;9.868;2023-10-13T09:50:02;17.20;99.90
20831;DHT22;10576;53.556;9.868;2023-10-13T09:52:38;17.20;99.90
20831;DHT22;10576;53.556;9.868;2023-10-13T09:55:13;17.20;99.90
20831;DHT22;10576;53.556;9.868;2023-10-13T09:57:45;17.30;99.90
20831;DHT22;10576;53.556;9.868;2023-10-13T10:00:18;17.20;99.90
20831;DHT22;10576;53.556;9.868;2023-10-13T10:03:05;17.30;99.90
20831;DHT22;10576;53.556;9.868;2023-10-13T10:05:41;17.20;99.90
20831;DHT22;10576;53.556;9.868;2023-10-13T10:08:07;17.20;99.90
20831;DHT22;10576;53.556;9.868;2023-10-13T10:13:20;17.20;99.90
20831;DHT22;10576;53.556;9.868;2023-10-13T10:15:48;17.30;99.90
20831;DHT22;10576;53.556;9.868;2023-10-13T10:18:20;17.30;99.90
20831;DHT22;10576;53.556;9.868;2023-10-13T10:20:50;17.30;99.90
20831;DHT22;10576;53.556;9.868;2023-10-13T10:23:27;17.30;99.90
20831;DHT22;10576;53.556;9.868;2023-10-13T10:25:54;17.40;99.90
20831;DHT22;10576;53.556;9.868;2023-10-13T10:28:36;17.50;99.90
20831;DHT22;10576;53.556;9.868;2023-10-13T10:31:05;17.50;99.90
20831;DHT22;10576;53.556;9.868;2023-10-13T10:33:34;17.50;99.90
20831;DHT22;10576;53.556;9.868;2023-10-13T10:36:00;17.50;99.90
20831;DHT22;10576;53.556;9.868;2023-10-13T10:38:26;17.60;99.90
20831;DHT22;10576;53.556;9.868;2023-10-13T10:40:58;17.70;99.90
20831;DHT22;10576;53.556;9.868;2023-10-13T10:45:53;17.70;99.90
20831;DHT22;10576;53.556;9.868;2023-10-13T10:48:25;17.80;99.90
20831;DHT22;10576;53.556;9.868;2023-10-13T10:50:57;17.90;99.90
20831;DHT22;10576;53.556;9.868;2023-10-13T10:53:24;17.90;99.90
20831;DHT22;10576;53.556;9.868;2023-10-13T10:56:08;18.00;99.90
20831;DHT22;10576;53.556;9.868;2023-10-13T10:58:45;18.00;99.90
20831;DHT22;10576;53.556;9.868;2023-10-13T11:01:11;18.10;99.90
20831;DHT22;10576;53.556;9.868;2023-10-13T11:03:52;18.10;99.90
20831;DHT22;10576;53.556;9.868;2023-10-13T11:06:17;18.10;99.90
20831;DHT22;10576;53.556;9.868;2023-10-13T11:08:45;18.20;99.90
20831;DHT22;10576;53.556;9.868;2023-10-13T11:11:16;18.20;99.90
20831;DHT22;10576;53.556;9.868;2023-10-13T11:13:55;18.30;99.90
20831;DHT22;10576;53.556;9.868;2023-10-13T11:16:48;18.30;99.90
20831;DHT22;10576;53.556;9.868;2023-10-13T11:19:19;18.40;99.90
20831;DHT22;10576;53.556;9.868;2023-10-13T11:21:51;18.40;99.90
20831;DHT22;10576;53.556;9.868;2023-10-13T11:24:17;18.40;99.90
20831;DHT22;10576;53.556;9.868;2023-10-13T11:26:43;18.50;99.90
20831;DHT22;10576;53.556;9.868;2023-10-13T11:29:16;18.60;99.90
20831;DHT22;10576;53.556;9.868;2023-10-13T11:31:47;18.70;99.90
20831;DHT22;10576;53.556;9.868;2023-10-13T11:34:19;18.70;99.90
20831;DHT22;10576;53.556;9.868;2023-10-13T11:36:44;18.80;99.90
20831;DHT22;10576;53.556;9.868;2023-10-13T11:39:10;18.80;99.90
20831;DHT22;10576;53.556;9.868;2023-10-13T11:41:42;19.00;99.90
20831;DHT22;10576;53.556;9.868;2023-10-13T11:44:16;18.90;99.90
20831;DHT22;10576;53.556;9.868;2023-10-13T11:46:44;19.00;99.90
20831;DHT22;10576;53.556;9.868;2023-10-13T11:49:12;19.10;99.90
20831;DHT22;10576;53.556;9.868;2023-10-13T11:51:49;19.10;99.90
20831;DHT22;10576;53.556;9.868;2023-10-13T11:54:16;19.10;99.90
20831;DHT22;10576;53.556;9.868;2023-10-13T11:56:43;19.10;99.90
20831;DHT22;10576;53.556;9.868;2023-10-13T11:59:10;19.20;99.90
20831;DHT22;10576;53.556;9.868;2023-10-13T12:01:49;19.30;99.90
20831;DHT22;10576;53.556;9.868;2023-10-13T12:04:33;19.30;99.90
20831;DHT22;10576;53.556;9.868;2023-10-13T12:07:19;19.30;99.90
20831;DHT22;10576;53.556;9.868;2023-10-13T12:09:46;19.30;99.90
20831;DHT22;10576;53.556;9.868;2023-10-13T12:12:31;19.40;99.90
20831;DHT22;10576;53.556;9.868;2023-10-13T12:15:05;19.40;99.90
20831;DHT22;10576;53.556;9.868;2023-10-13T12:17:35;19.50;99.90
20831;DHT22;10576;53.556;9.868;2023-10-13T12:20:01;19.50;99.90
20831;DHT22;10576;53.556;9.868;2023-10-13T12:22:30;19.50;99.90
20831;DHT22;10576;53.556;9.868;2023-10-13T12:25:04;19.50;99.90
20831;DHT22;10576;53.556;9.868;2023-10-13T12:27:30;19.50;99.90
20831;DHT22;10576;53.556;9.868;2023-10-13T12:30:14;19.50;99.90
20831;DHT22;10576;53.556;9.868;2023-10-13T12:32:42;19.50;99.90
20831;DHT22;10576;53.556;9.868;2023-10-13T12:35:19;19.50;99.90
20831;DHT22;10576;53.556;9.868;2023-10-13T12:37:55;19.60;99.90
20831;DHT22;10576;53.556;9.868;2023-10-13T12:40:30;19.50;99.90
20831;DHT22;10576;53.556;9.868;2023-10-13T12:43:14;19.60;99.90
20831;DHT22;10576;53.556;9.868;2023-10-13T12:45:58;19.60;99.90
20831;DHT22;10576;53.556;9.868;2023-10-13T12:48:42;19.70;99.90
20831;DHT22;10576;53.556;9.868;2023-10-13T12:51:26;19.70;99.90
20831;DHT22;10576;53.556;9.868;2023-10-13T12:53:58;19.70;99.90
20831;DHT22;10576;53.556;9.868;2023-10-13T12:56:38;19.80;99.90
20831;DHT22;10576;53.556;9.868;2023-10-13T12:59:10;19.80;99.90
20831;DHT22;10576;53.556;9.868;2023-10-13T13:01:39;19.80;99.90
20831;DHT22;10576;53.556;9.868;2023-10-13T13:04:07;19.80;99.90
20831;DHT22;10576;53.556;9.868;2023-10-13T13:06:37;20.00;99.90
20831;DHT22;10576;53.556;9.868;2023-10-13T13:09:05;20.00;99.90
20831;DHT22;10576;53.556;9.868;2023-10-13T13:11:35;20.10;99.90
20831;DHT22;10576;53.556;9.868;2023-10-13T13:14:05;20.00;99.90
20831;DHT22;10576;53.556;9.868;2023-10-13T13:16:33;20.10;99.90
20831;DHT22;10576;53.556;9.868;2023-10-13T13:18:58;20.00;99.90
20831;DHT22;10576;53.556;9.868;2023-10-13T13:21:24;20.10;99.90
20831;DHT22;10576;53.556;9.868;2023-10-13T13:23:53;20.00;99.90
20831;DHT22;10576;53.556;9.868;2023-10-13T13:26:21;20.00;99.90
20831;DHT22;10576;53.556;9.868;2023-10-13T13:28:47;20.10;99.90
20831;DHT22;10576;53.556;9.868;2023-10-13T13:31:16;20.10;99.90
20831;DHT22;10576;53.556;9.868;2023-10-13T13:33:42;20.30;99.90
20831;DHT22;10576;53.556;9.868;2023-10-13T13:36:09;20.40;99.90
20831;DHT22;10576;53.556;9.868;2023-10-13T13:38:40;20.50;99.90
20831;DHT22;10576;53.556;9.868;2023-10-13T13:41:11;20.50;99.90
20831;DHT22;10576;53.556;9.868;2023-10-13T13:43:40;20.40;99.90
20831;DHT22;10576;53.556;9.868;2023-10-13T13:46:18;20.40;99.90
20831;DHT22;10576;53.556;9.868;2023-10-13T13:48:44;20.40;99.90
20831;DHT22;10576;53.556;9.868;2023-10-13T13:51:13;20.30;99.90
20831;DHT22;10576;53.556;9.868;2023-10-13T13:53:45;20.30;99.90
20831;DHT22;10576;53.556;9.868;2023-10-13T13:56:14;20.30;99.90
20831;DHT22;10576;53.556;9.868;2023-10-13T13:58:51;20.30;99.90
20831;DHT22;10576;53.556;9.868;2023-10-13T14:01:16;20.20;99.90
20831;DHT22;10576;53.556;9.868;2023-10-13T14:03:47;20.20;99.90
20831;DHT22;10576;53.556;9.868;2023-10-13T14:06:16;20.20;99.90
20831;DHT22;10576;53.556;9.868;2023-10-13T14:08:46;20.20;99.90
20831;DHT22;10576;53.556;9.868;2023-10-13T14:11:16;20.20;99.90
20831;DHT22;10576;53.556;9.868;2023-10-13T14:17:00;20.00;99.90
20831;DHT22;10576;53.556;9.868;2023-10-13T14:19:35;20.00;99.90
20831;DHT22;10576;53.556;9.868;2023-10-13T14:22:05;19.90;99.90
20831;DHT22;10576;53.556;9.868;2023-10-13T14:24:37;19.90;99.90
20831;DHT22;10576;53.556;9.868;2023-10-13T14:27:09;19.90;99.90
20831;DHT22;10576;53.556;9.868;2023-10-13T14:29:37;20.70;99.90
20831;DHT22;10576;53.556;9.868;2023-10-13T14:32:09;21.30;99.90
20831;DHT22;10576;53.556;9.868;2023-10-13T14:34:41;21.40;99.90
20831;DHT22;10576;53.556;9.868;2023-10-13T14:37:07;21.50;99.90
20831;DHT22;10576;53.556;9.868;2023-10-13T14:39:33;21.60;99.90
20831;DHT22;10576;53.556;9.868;2023-10-13T14:42:01;21.90;99.90
20831;DHT22;10576;53.556;9.868;2023-10-13T14:44:28;21.90;99.90
20831;DHT22;10576;53.556;9.868;2023-10-13T14:46:53;22.00;99.90
20831;DHT22;10576;53.556;9.868;2023-10-13T14:49:22;22.00;99.90
20831;DHT22;10576;53.556;9.868;2023-10-13T14:51:47;22.10;99.90
20831;DHT22;10576;53.556;9.868;2023-10-13T14:54:15;22.20;99.90
20831;DHT22;10576;53.556;9.868;2023-10-13T14:56:40;22.20;99.90
20831;DHT22;10576;53.556;9.868;2023-10-13T14:59:07;21.90;99.90
20831;DHT22;10576;53.556;9.868;2023-10-13T15:01:40;21.90;99.90
20831;DHT22;10576;53.556;9.868;2023-10-13T15:04:05;21.90;99.90
20831;DHT22;10576;53.556;9.868;2023-10-13T15:06:31;21.90;99.90
20831;DHT22;10576;53.556;9.868;2023-10-13T15:08:58;21.80;99.90
20831;DHT22;10576;53.556;9.868;2023-10-13T15:11:24;21.70;99.90
20831;DHT22;10576;53.556;9.868;2023-10-13T15:13:53;21.70;99.90
20831;DHT22;10576;53.556;9.868;2023-10-13T15:16:22;21.60;99.90
20831;DHT22;10576;53.556;9.868;2023-10-13T15:18:48;21.50;99.90
20831;DHT22;10576;53.556;9.868;2023-10-13T15:21:20;21.60;99.90
20831;DHT22;10576;53.556;9.868;2023-10-13T15:23:52;21.60;99.90
20831;DHT22;10576;53.556;9.868;2023-10-13T15:26:18;21.40;99.90
20831;DHT22;10576;53.556;9.868;2023-10-13T15:28:46;21.20;99.90
20831;DHT22;10576;53.556;9.868;2023-10-13T15:31:21;21.30;99.90
20831;DHT22;10576;53.556;9.868;2023-10-13T15:34:00;21.30;99.90
20831;DHT22;10576;53.556;9.868;2023-10-13T15:36:32;21.30;99.90
20831;DHT22;10576;53.556;9.868;2023-10-13T15:38:58;21.40;99.90
20831;DHT22;10576;53.556;9.868;2023-10-13T15:41:24;21.30;99.90
20831;DHT22;10576;53.556;9.868;2023-10-13T15:43:49;21.30;99.90
20831;DHT22;10576;53.556;9.868;2023-10-13T15:46:15;21.30;99.90
20831;DHT22;10576;53.556;9.868;2023-10-13T15:48:52;21.30;99.90
20831;DHT22;10576;53.556;9.868;2023-10-13T15:51:18;21.30;99.90
20831;DHT22;10576;53.556;9.868;2023-10-13T15:53:44;21.20;99.90
20831;DHT22;10576;53.556;9.868;2023-10-13T15:56:13;21.10;99.90
20831;DHT22;10576;53.556;9.868;2023-10-13T16:01:09;21.00;99.90
20831;DHT22;10576;53.556;9.868;2023-10-13T16:03:41;21.10;99.90
20831;DHT22;10576;53.556;9.868;2023-10-13T16:06:12;21.10;99.90
20831;DHT22;10576;53.556;9.868;2023-10-13T16:08:38;21.10;99.90
20831;DHT22;10576;53.556;9.868;2023-10-13T16:11:08;21.20;99.90
20831;DHT22;10576;53.556;9.868;2023-10-13T16:13:36;21.20;99.90
20831;DHT22;10576;53.556;9.868;2023-10-13T16:16:02;21.00;99.90